Time;durP1;ratioP1;P1;durP2;ratioP2;P2;SDS_P1;SDS_P2;PMS_P1;PMS_P2;Temp;Humidity;BMP_temperature;BMP_pressure;BME280_temperature;BME280_humidity;BME280_pressure;Samples;Min_cycle;Max_cycle;Signal;HPM_P1;HPM_P2
2023/07/14 00:00:39;;;;;;;10.63;6.22;;;;;;;18.32;84.52;101669.44;5093611;28;20032;-59
2023/07/14 00:03:05;;;;;;;11.00;6.40;;;;;;;18.35;83.88;101674.78;5093851;28;20028;-58
2023/07/14 00:05:34;;;;;;;12.43;6.75;;;;;;;18.26;84.47;101680.19;5093892;28;20077;-59
2023/07/14 00:07:59;;;;;;;9.27;6.30;;;;;;;18.19;84.59;101684.69;5093395;28;20069;-59
2023/07/14 00:10:31;;;;;;;10.27;6.72;;;;;;;18.21;84.81;101682.03;5092974;28;20028;-59
2023/07/14 00:13:02;;;;;;;11.63;6.57;;;;;;;18.22;85.45;101675.78;5093613;28;20129;-58
2023/07/14 00:15:35;;;;;;;14.18;6.30;;;;;;;18.24;85.03;101668.59;5093484;28;20031;-58
2023/07/14 00:18:23;;;;;;;11.07;6.15;;;;;;;18.30;85.16;101667.69;5093716;28;20385;-58
2023/07/14 00:20:48;;;;;;;8.38;5.80;;;;;;;18.35;84.57;101671.22;5092823;28;20048;-60
2023/07/14 00:23:15;;;;;;;10.23;5.93;;;;;;;18.25;84.21;101676.63;5075271;28;20127;-58
2023/07/14 00:25:41;;;;;;;11.23;6.30;;;;;;;18.29;84.81;101665.91;5093301;28;20474;-59
2023/07/14 00:28:16;;;;;;;9.95;6.20;;;;;;;18.26;84.58;101658.78;5092480;28;20105;-59
2023/07/14 00:30:42;;;;;;;12.23;5.95;;;;;;;18.30;84.54;101668.56;5072879;28;20033;-59
2023/07/14 00:33:13;;;;;;;11.13;6.30;;;;;;;18.17;84.97;101667.78;5072942;28;20055;-58
2023/07/14 00:35:40;;;;;;;7.30;5.90;;;;;;;18.15;85.24;101666.88;5072950;28;20082;-58
2023/07/14 00:38:05;;;;;;;8.48;5.80;;;;;;;18.09;85.08;101668.72;5072892;28;20439;-59
2023/07/14 00:40:38;;;;;;;9.20;5.90;;;;;;;18.11;84.86;101665.13;5073021;28;20056;-58
2023/07/14 00:43:05;;;;;;;11.80;6.30;;;;;;;18.11;85.11;101664.25;5073087;28;20104;-58
2023/07/14 00:45:34;;;;;;;11.18;5.70;;;;;;;18.18;84.83;101660.63;5072941;28;20417;-58
2023/07/14 00:48:04;;;;;;;9.90;6.13;;;;;;;18.14;84.61;101657.09;5072921;28;20029;-58
2023/07/14 00:50:52;;;;;;;8.98;5.95;;;;;;;18.17;84.18;101653.53;5072923;28;20462;-59
2023/07/14 00:53:23;;;;;;;7.60;5.68;;;;;;;18.18;84.55;101650.81;5072881;28;20060;-58
2023/07/14 00:55:56;;;;;;;7.85;5.60;;;;;;;18.23;83.93;101645.44;5073198;28;20082;-59
2023/07/14 00:58:26;;;;;;;8.52;5.40;;;;;;;18.28;83.79;101643.59;5073145;28;20056;-58
2023/07/14 01:01:21;;;;;;;9.55;5.93;;;;;;;18.32;83.75;101650.69;5072758;28;20033;-59
2023/07/14 01:03:51;;;;;;;9.90;6.15;;;;;;;18.23;83.24;101643.63;5072774;28;20032;-59
2023/07/14 01:06:26;;;;;;;9.07;5.60;;;;;;;18.17;83.60;101642.81;5072757;28;20547;-59
2023/07/14 01:08:59;;;;;;;9.57;5.53;;;;;;;18.05;84.32;101649.13;5072789;28;20029;-59
2023/07/14 01:11:27;;;;;;;;;;;;;;;18.13;82.68;101649.97;5073198;28;20439;-58
2023/07/14 01:13:53;;;;;;;11.05;5.40;;;;;;;17.98;84.54;101648.28;5054867;28;20204;-59
2023/07/14 01:16:19;;;;;;;9.10;6.00;;;;;;;17.98;84.93;101652.75;5072935;28;20029;-59
2023/07/14 01:18:47;;;;;;;9.52;5.10;;;;;;;18.08;84.60;101648.25;5072977;28;20496;-59
2023/07/14 01:21:13;;;;;;;10.48;5.80;;;;;;;18.03;84.85;101642.94;5074559;28;20513;-59
2023/07/14 01:23:45;;;;;;;12.23;5.80;;;;;;;17.99;85.03;101638.50;5076398;28;20074;-59
2023/07/14 01:26:24;;;;;;;8.15;5.55;;;;;;;18.06;85.07;101636.66;5076670;28;20059;-59
2023/07/14 01:28:50;;;;;;;9.13;5.90;;;;;;;18.03;84.80;101629.56;5076655;28;20154;-59
2023/07/14 01:31:20;;;;;;;10.77;5.97;;;;;;;17.99;85.38;101634.03;5076097;28;20485;-58
2023/07/14 01:33:45;;;;;;;9.52;5.70;;;;;;;18.06;85.09;101633.97;5076459;28;20473;-58
2023/07/14 01:36:11;;;;;;;9.43;6.20;;;;;;;18.01;84.76;101632.22;5076136;28;20106;-58
2023/07/14 01:38:38;;;;;;;8.85;5.60;;;;;;;17.94;85.08;101641.22;5076412;28;20062;-59
2023/07/14 01:41:05;;;;;;;8.23;5.55;;;;;;;17.89;85.84;101640.31;5076105;28;20482;-59
2023/07/14 01:43:31;;;;;;;10.20;6.10;;;;;;;17.90;86.12;101631.44;5075890;28;20025;-59
2023/07/14 01:46:00;;;;;;;10.95;5.70;;;;;;;17.89;86.05;101621.59;5076087;28;20033;-59
2023/07/14 01:48:33;;;;;;;13.18;6.57;;;;;;;18.02;85.67;101625.97;5076309;28;20099;-58
2023/07/14 01:51:04;;;;;;;8.43;5.60;;;;;;;18.07;84.29;101623.25;5076042;28;20078;-61
2023/07/14 01:53:41;;;;;;;7.85;6.13;;;;;;;18.03;85.42;101626.88;5075903;28;20028;-58
2023/07/14 01:56:10;;;;;;;9.43;6.40;;;;;;;17.88;85.97;101626.97;5075906;28;20085;-60
2023/07/14 01:59:03;;;;;;;8.32;6.55;;;;;;;17.80;85.92;101620.78;5057828;28;20066;-58
2023/07/14 02:01:30;;;;;;;12.13;6.93;;;;;;;17.72;86.68;101626.16;5075656;28;20028;-58
2023/07/14 02:03:56;;;;;;;11.15;6.80;;;;;;;17.66;86.87;101623.53;5075574;28;20087;-58
2023/07/14 02:06:23;;;;;;;9.30;7.13;;;;;;;17.71;86.60;101619.91;5075760;28;20021;-59
2023/07/14 02:08:49;;;;;;;8.73;6.32;;;;;;;17.75;86.51;101620.81;5057850;28;20509;-58
2023/07/14 02:11:17;;;;;;;10.80;6.47;;;;;;;17.62;86.90;101617.31;5075660;28;20033;-59
2023/07/14 02:13:43;;;;;;;13.48;6.75;;;;;;;17.61;87.23;101620.88;5075790;28;20370;-59
2023/07/14 02:16:14;;;;;;;10.70;6.55;;;;;;;17.53;87.41;101623.59;5075550;28;20028;-59
2023/07/14 02:18:41;;;;;;;10.93;6.55;;;;;;;17.56;87.27;101616.44;5075481;28;20040;-58
2023/07/14 02:21:09;;;;;;;8.90;6.03;;;;;;;17.63;87.08;101611.06;5075239;28;20048;-58
2023/07/14 02:23:38;;;;;;;8.68;6.30;;;;;;;17.63;86.73;101605.72;5075317;28;20039;-59
2023/07/14 02:26:10;;;;;;;11.98;6.55;;;;;;;17.65;86.36;101609.28;5075371;28;20647;-59
2023/07/14 02:28:35;;;;;;;14.63;7.13;;;;;;;17.63;85.77;101608.38;5075251;28;20100;-59
2023/07/14 02:31:11;;;;;;;9.98;6.32;;;;;;;17.58;86.24;101604.84;5075097;28;20060;-59
2023/07/14 02:33:41;;;;;;;10.38;6.18;;;;;;;17.55;86.28;101606.66;5074675;28;20378;-59
2023/07/14 02:36:22;;;;;;;8.88;7.05;;;;;;;17.53;86.08;101609.34;5075109;28;20051;-60
2023/07/14 02:38:47;;;;;;;10.93;7.00;;;;;;;17.42;86.04;101612.06;5075159;28;20576;-59
2023/07/14 02:41:31;;;;;;;9.60;6.47;;;;;;;17.45;86.16;101613.84;5075013;28;20107;-58
2023/07/14 02:44:03;;;;;;;11.90;6.80;;;;;;;17.36;86.34;101605.88;5075194;28;20070;-59
2023/07/14 02:46:34;;;;;;;11.70;6.53;;;;;;;17.36;86.11;101609.44;5075325;28;20119;-58
2023/07/14 02:48:59;;;;;;;10.00;6.88;;;;;;;17.31;85.50;101613.91;5075215;28;20033;-59
2023/07/14 02:51:25;;;;;;;10.68;6.78;;;;;;;17.31;85.61;101610.38;5056959;28;20094;-58
2023/07/14 02:53:50;;;;;;;10.73;6.90;;;;;;;17.24;86.22;101612.16;5074788;28;20386;-58
2023/07/14 02:56:15;;;;;;;10.80;6.55;;;;;;;17.18;86.21;101613.09;5075004;28;20039;-58
2023/07/14 02:58:47;;;;;;;10.80;7.07;;;;;;;17.07;86.44;101614.00;5074701;28;20130;-60
2023/07/14 03:01:13;;;;;;;18.77;6.85;;;;;;;16.99;86.59;101606.91;5074816;28;20037;-59
2023/07/14 03:03:38;;;;;;;10.73;7.00;;;;;;;16.95;86.49;101604.25;5057015;28;20462;-59
2023/07/14 03:06:03;;;;;;;9.98;6.80;;;;;;;16.96;86.15;101612.28;5074629;28;20103;-58
2023/07/14 03:08:29;;;;;;;9.75;6.68;;;;;;;16.96;86.60;101606.06;5074513;28;20043;-59
2023/07/14 03:10:57;;;;;;;11.05;6.68;;;;;;;16.93;86.63;101601.59;5074370;28;20028;-59
2023/07/14 03:13:23;;;;;;;10.65;6.38;;;;;;;16.99;86.53;101603.34;5074429;28;20081;-59
2023/07/14 03:15:48;;;;;;;11.90;6.80;;;;;;;16.99;86.40;101601.56;5074331;28;20541;-58
2023/07/14 03:18:14;;;;;;;11.85;6.68;;;;;;;16.97;86.36;101605.16;5074204;28;20102;-59
2023/07/14 03:20:41;;;;;;;10.50;6.47;;;;;;;17.01;86.28;101598.91;5073815;28;20398;-59
2023/07/14 03:23:06;;;;;;;9.75;6.38;;;;;;;17.01;86.60;101597.13;5074186;28;20062;-59
2023/07/14 03:25:35;;;;;;;8.57;6.07;;;;;;;17.07;86.33;101595.31;5074390;28;20025;-59
2023/07/14 03:28:01;;;;;;;11.60;6.55;;;;;;;17.08;86.54;101597.09;5074002;28;20025;-58
2023/07/14 03:30:28;;;;;;;8.88;6.43;;;;;;;17.02;86.66;101595.34;5074122;28;20056;-58
2023/07/14 03:32:53;;;;;;;9.45;6.47;;;;;;;17.09;86.61;101596.22;5056258;28;20131;-59
2023/07/14 03:35:19;;;;;;;18.13;7.40;;;;;;;17.14;86.45;101587.28;5073889;28;20104;-58
2023/07/14 03:37:48;;;;;;;11.23;6.90;;;;;;;17.15;86.08;101597.06;5073769;28;20090;-58
2023/07/14 03:40:14;;;;;;;9.85;6.68;;;;;;;17.13;86.36;101592.59;5074019;28;20036;-59
2023/07/14 03:42:40;;;;;;;13.30;7.00;;;;;;;17.09;86.33;101589.09;5073608;28;20104;-58
2023/07/14 03:45:06;;;;;;;11.27;6.22;;;;;;;17.08;86.85;101583.75;5073254;28;20106;-59
2023/07/14 03:47:32;;;;;;;9.57;6.22;;;;;;;17.10;86.29;101573.97;5073047;28;20417;-59
2023/07/14 03:49:57;;;;;;;11.93;6.75;;;;;;;17.11;86.19;101578.41;5054641;28;20043;-58
2023/07/14 03:52:23;;;;;;;8.55;6.40;;;;;;;17.10;86.17;101576.63;5072979;28;20035;-58
2023/07/14 03:54:49;;;;;;;12.50;6.10;;;;;;;17.16;86.15;101574.78;5072430;28;20308;-59
2023/07/14 03:57:14;;;;;;;9.05;6.55;;;;;;;17.13;86.34;101568.56;5054746;28;20514;-58
2023/07/14 03:59:39;;;;;;;7.85;6.25;;;;;;;17.25;86.61;101572.06;5072425;28;20103;-58
2023/07/14 04:02:05;;;;;;;9.68;6.47;;;;;;;17.27;86.37;101574.75;5072391;28;20405;-58
2023/07/14 04:04:31;;;;;;;8.88;6.03;;;;;;;17.37;85.72;101570.25;5072448;28;20029;-58
2023/07/14 04:06:57;;;;;;;10.35;6.10;;;;;;;17.40;85.40;101568.44;5072230;28;20025;-59
2023/07/14 04:09:23;;;;;;;11.23;6.05;;;;;;;17.46;85.01;101567.50;5072375;28;20107;-59
2023/07/14 04:11:48;;;;;;;9.88;5.82;;;;;;;17.47;84.97;101569.28;5072286;28;20075;-59
2023/07/14 04:14:14;;;;;;;9.25;6.00;;;;;;;17.46;84.78;101575.53;5072573;28;20040;-59
2023/07/14 04:16:39;;;;;;;12.88;5.90;;;;;;;17.52;84.49;101573.72;5054262;28;20030;-57
2023/07/14 04:19:05;;;;;;;12.52;5.45;;;;;;;17.48;84.31;101571.09;5072269;28;20045;-58
2023/07/14 04:21:31;;;;;;;10.43;5.30;;;;;;;17.40;84.13;101570.25;5054196;28;20032;-59
2023/07/14 04:23:57;;;;;;;9.75;5.65;;;;;;;17.23;85.02;101576.56;5072359;28;20127;-59
2023/07/14 04:26:24;;;;;;;11.93;5.72;;;;;;;17.31;85.19;101572.97;5072062;28;20116;-59
2023/07/14 04:28:50;;;;;;;8.77;5.35;;;;;;;17.28;84.70;101564.06;5079491;28;20024;-59
2023/07/14 04:31:16;;;;;;;10.52;5.30;;;;;;;17.29;84.87;101567.59;5092430;28;20027;-59
2023/07/14 04:33:43;;;;;;;7.97;5.15;;;;;;;17.31;85.04;101559.59;5092556;28;20057;-59
2023/07/14 04:36:09;;;;;;;8.15;4.70;;;;;;;17.33;85.09;101563.16;5092768;28;20085;-59
2023/07/14 04:38:35;;;;;;;9.10;5.00;;;;;;;17.23;84.82;101563.19;5092319;28;20107;-59
2023/07/14 04:41:00;;;;;;;7.45;4.72;;;;;;;17.21;84.46;101564.97;5092704;28;20016;-59
2023/07/14 04:43:26;;;;;;;8.00;4.35;;;;;;;17.20;84.48;101562.31;5092353;28;20416;-59
2023/07/14 04:45:51;;;;;;;8.63;4.68;;;;;;;17.18;84.65;101565.00;5092743;28;20411;-58
2023/07/14 04:48:18;;;;;;;8.13;4.32;;;;;;;17.15;84.51;101574.81;5092328;28;20024;-58
2023/07/14 04:50:46;;;;;;;11.23;4.60;;;;;;;17.14;84.79;101573.94;5092801;28;20028;-58
2023/07/14 04:53:12;;;;;;;7.35;3.90;;;;;;;17.19;84.01;101571.22;5091967;28;20393;-58
2023/07/14 04:55:42;;;;;;;6.00;4.00;;;;;;;17.18;83.91;101572.13;5093735;28;20036;-57
2023/07/14 04:58:09;;;;;;;8.98;4.30;;;;;;;17.17;84.07;101571.25;5096369;28;20429;-57
2023/07/14 05:00:36;;;;;;;7.95;4.40;;;;;;;17.17;83.75;101576.59;5096284;28;20039;-58
2023/07/14 05:03:02;;;;;;;7.03;4.22;;;;;;;17.10;84.14;101576.63;5096261;28;20070;-59
2023/07/14 05:05:28;;;;;;;6.97;4.50;;;;;;;17.09;84.50;101570.41;5096255;28;20027;-59
2023/07/14 05:07:55;;;;;;;11.50;5.13;;;;;;;17.06;84.78;101573.06;5096555;28;20024;-58
2023/07/14 05:10:23;;;;;;;7.10;4.35;;;;;;;17.11;84.56;101568.59;5096539;28;20070;-59
2023/07/14 05:12:53;;;;;;;9.85;4.90;;;;;;;17.08;85.13;101570.38;5096576;28;20024;-59
2023/07/14 05:15:20;;;;;;;8.20;5.00;;;;;;;17.13;84.71;101564.16;5096262;28;20032;-58
2023/07/14 05:17:45;;;;;;;11.95;4.88;;;;;;;17.09;85.08;101564.19;5096214;28;20512;-59
2023/07/14 05:20:14;;;;;;;13.35;4.80;;;;;;;17.15;85.30;101556.13;5095980;28;20068;-58
2023/07/14 05:22:43;;;;;;;10.38;4.43;;;;;;;17.21;84.08;101558.75;5096342;28;20535;-57
2023/07/14 05:25:08;;;;;;;11.60;4.85;;;;;;;17.33;83.75;101565.81;5095733;28;20024;-58
2023/07/14 05:27:35;;;;;;;10.23;4.57;;;;;;;17.38;83.82;101550.63;5095950;28;20115;-58
2023/07/14 05:30:02;;;;;;;11.52;4.60;;;;;;;17.47;82.88;101554.16;5096152;28;20047;-58
2023/07/14 05:32:28;;;;;;;13.60;4.90;;;;;;;17.52;nan;101559.47;5095871;28;20111;-59
2023/07/14 05:34:53;;;;;;;12.23;4.63;;;;;;;17.60;82.14;101556.72;5095922;28;20111;-59
2023/07/14 05:37:19;;;;;;;13.68;4.43;;;;;;;17.70;81.64;101562.00;5095642;28;20035;-59
2023/07/14 05:39:45;;;;;;;9.20;4.68;;;;;;;17.69;81.25;101562.03;5096128;28;20078;-58
2023/07/14 05:42:10;;;;;;;9.57;4.65;;;;;;;17.64;81.18;101558.47;5095967;28;20469;-58
2023/07/14 05:44:36;;;;;;;9.48;4.50;;;;;;;17.66;80.19;101559.38;5095891;28;20410;-59
2023/07/14 05:47:01;;;;;;;11.02;4.38;;;;;;;17.68;80.01;101557.56;5095308;28;20474;-59
2023/07/14 05:49:27;;;;;;;6.22;3.70;;;;;;;17.69;79.09;101551.34;5095978;28;20028;-59
2023/07/14 05:51:53;;;;;;;7.50;4.30;;;;;;;17.74;79.87;101553.13;5095307;28;20028;-58
2023/07/14 05:54:20;;;;;;;13.55;4.40;;;;;;;17.77;78.93;101561.13;5095800;28;20028;-57
2023/07/14 05:56:46;;;;;;;10.90;4.32;;;;;;;17.77;77.98;101550.44;5095515;28;20498;-58
2023/07/14 05:59:11;;;;;;;6.97;4.05;;;;;;;17.84;78.16;101553.03;5095394;28;20036;-58
2023/07/14 06:01:37;;;;;;;8.18;4.10;;;;;;;17.86;76.83;101554.81;5095141;28;20063;-58
2023/07/14 06:04:02;;;;;;;12.07;4.10;;;;;;;17.89;78.02;101553.88;5095132;28;20434;-59
2023/07/14 06:06:27;;;;;;;9.80;4.68;;;;;;;17.97;78.68;101560.94;5076901;28;20031;-58
2023/07/14 06:08:56;;;;;;;9.65;4.38;;;;;;;17.98;76.30;101567.16;5094970;28;20029;-58
2023/07/14 06:11:21;;;;;;;12.07;4.25;;;;;;;18.07;76.22;101559.06;5095262;28;20081;-57
2023/07/14 06:13:47;;;;;;;12.35;4.40;;;;;;;18.09;76.61;101564.41;5094980;28;20044;-58
2023/07/14 06:16:12;;;;;;;9.25;3.83;;;;;;;18.16;76.65;101561.69;5095007;28;20028;-58
2023/07/14 06:18:38;;;;;;;10.43;4.22;;;;;;;18.13;76.24;101569.72;5094955;28;20025;-57
2023/07/14 06:21:03;;;;;;;7.30;4.03;;;;;;;18.13;77.13;101563.50;5076596;28;20098;-57
2023/07/14 06:23:29;;;;;;;8.43;4.03;;;;;;;18.01;76.42;101551.09;5094696;28;20039;-58
2023/07/14 06:25:54;;;;;;;8.48;4.13;;;;;;;17.94;75.53;101552.06;5095134;28;20056;-58
2023/07/14 06:28:20;;;;;;;8.75;3.92;;;;;;;17.98;75.90;101554.69;5095102;28;20095;-59
2023/07/14 06:30:46;;;;;;;8.68;4.13;;;;;;;18.06;75.92;101559.97;5094647;28;20453;-57
2023/07/14 06:33:12;;;;;;;9.68;3.67;;;;;;;18.11;74.90;101555.47;5094719;28;20090;-57
2023/07/14 06:35:39;;;;;;;7.93;3.92;;;;;;;18.12;74.73;101548.34;5094666;28;20062;-58
2023/07/14 06:38:06;;;;;;;8.60;4.18;;;;;;;18.08;74.96;101562.66;5094664;28;20138;-58
2023/07/14 06:40:31;;;;;;;9.57;4.05;;;;;;;18.06;75.51;101564.44;5094733;28;20028;-58
2023/07/14 06:43:00;;;;;;;9.00;3.80;;;;;;;18.07;75.32;101550.16;5076449;28;20500;-58
2023/07/14 06:45:26;;;;;;;7.57;4.20;;;;;;;17.97;74.64;101563.63;5094790;28;20032;-58
2023/07/14 06:47:52;;;;;;;8.27;4.25;;;;;;;18.01;75.59;101543.97;5094450;28;20032;-59
2023/07/14 06:50:17;;;;;;;8.10;4.30;;;;;;;18.08;75.77;101550.16;5094453;28;20031;-59
2023/07/14 06:52:44;;;;;;;7.07;4.13;;;;;;;18.16;74.90;101545.63;5094326;28;20620;-58
2023/07/14 06:55:09;;;;;;;11.38;3.97;;;;;;;18.27;74.26;101546.41;5094499;28;20424;-58
2023/07/14 06:57:35;;;;;;;9.50;4.25;;;;;;;18.39;73.20;101550.75;5094563;28;20031;-57
2023/07/14 07:00:00;;;;;;;9.48;4.10;;;;;;;18.46;73.88;101546.22;5094320;28;20048;-58
2023/07/14 07:02:26;;;;;;;9.60;4.13;;;;;;;18.62;72.56;101544.25;5094186;28;20028;-58
2023/07/14 07:04:51;;;;;;;9.55;4.00;;;;;;;18.71;71.93;101538.81;5094386;28;20081;-57
2023/07/14 07:07:17;;;;;;;7.07;3.80;;;;;;;18.89;71.87;101537.75;5093935;28;20035;-58
2023/07/14 07:09:43;;;;;;;10.10;3.90;;;;;;;18.80;69.96;101537.81;5094267;28;20116;-57
2023/07/14 07:12:09;;;;;;;8.43;3.85;;;;;;;18.74;70.62;101537.00;5094001;28;20024;-57
2023/07/14 07:14:35;;;;;;;8.10;3.67;;;;;;;18.95;70.82;101530.50;5093972;28;20431;-57
2023/07/14 07:17:01;;;;;;;7.40;3.40;;;;;;;19.07;67.88;101529.47;5094147;28;20107;-59
2023/07/14 07:19:26;;;;;;;7.43;3.30;;;;;;;19.02;66.67;101528.63;5093027;28;20101;-58
2023/07/14 07:21:53;;;;;;;10.90;3.35;;;;;;;19.04;67.78;101524.13;5093502;28;20047;-58
2023/07/14 07:24:19;;;;;;;7.72;3.58;;;;;;;19.02;67.40;101512.56;5093811;28;20435;-58
2023/07/14 07:26:44;;;;;;;6.95;3.40;;;;;;;19.09;67.28;101521.38;5093501;28;20155;-58
2023/07/14 07:29:10;;;;;;;8.02;3.45;;;;;;;19.16;67.87;101515.03;5093962;28;20110;-58
2023/07/14 07:31:35;;;;;;;7.07;3.40;;;;;;;19.22;66.59;101514.94;5093661;28;20047;-56
2023/07/14 07:34:00;;;;;;;6.97;3.25;;;;;;;19.33;66.66;101513.00;5093667;28;20457;-57
2023/07/14 07:36:27;;;;;;;7.25;3.10;;;;;;;19.33;64.84;101521.06;5093699;28;20388;-58
2023/07/14 07:38:53;;;;;;;6.65;3.38;;;;;;;19.30;64.74;101520.19;5093624;28;20020;-58
2023/07/14 07:41:24;;;;;;;7.00;3.10;;;;;;;19.32;64.88;101515.72;5093451;28;20381;-58
2023/07/14 07:43:50;;;;;;;6.67;3.10;;;;;;;19.33;65.79;101514.81;5093407;28;20099;-57
2023/07/14 07:46:16;;;;;;;10.95;3.65;;;;;;;19.36;65.00;101506.72;5093616;28;20266;-58
2023/07/14 07:48:43;;;;;;;13.25;5.72;;;;;;;19.50;66.09;101500.22;5093284;28;20073;-58
2023/07/14 07:51:09;;;;;;;10.57;4.85;;;;;;;19.69;64.05;101505.31;5093404;28;20035;-57
2023/07/14 07:53:34;;;;;;;7.68;3.30;;;;;;;20.01;62.66;101512.84;5093156;28;20032;-59
2023/07/14 07:56:01;;;;;;;6.18;3.00;;;;;;;20.22;62.61;101514.25;5093321;28;20127;-58
2023/07/14 07:58:27;;;;;;;8.55;3.10;;;;;;;20.37;62.21;101511.25;5093337;28;20077;-58
2023/07/14 08:00:54;;;;;;;7.32;3.20;;;;;;;20.47;62.04;101502.13;5092931;28;20028;-58
2023/07/14 08:03:20;;;;;;;7.03;3.10;;;;;;;20.48;60.40;101511.09;5093280;28;20109;-58
2023/07/14 08:05:45;;;;;;;7.78;3.03;;;;;;;20.35;60.67;101504.19;5092894;28;20024;-59
2023/07/14 08:08:11;;;;;;;7.57;3.25;;;;;;;20.29;60.73;101501.59;5092979;28;20024;-57
2023/07/14 08:10:43;;;;;;;6.80;2.90;;;;;;;20.35;61.15;101498.81;5074674;28;20028;-57
2023/07/14 08:13:10;;;;;;;5.35;3.00;;;;;;;20.39;60.22;101500.53;5093107;28;20103;-57
2023/07/14 08:15:37;;;;;;;6.00;3.22;;;;;;;20.48;60.68;101489.63;5092916;28;20032;-57
2023/07/14 08:18:03;;;;;;;11.88;3.30;;;;;;;20.53;60.19;101495.78;5093153;28;20100;-58
2023/07/14 08:20:29;;;;;;;9.88;3.28;;;;;;;20.47;59.84;101494.09;5092520;28;20470;-57
2023/07/14 08:22:54;;;;;;;11.45;3.35;;;;;;;20.43;60.39;101492.38;5092762;28;20032;-57
2023/07/14 08:25:21;;;;;;;7.43;3.15;;;;;;;20.29;58.26;101499.78;5092637;28;20069;-58
2023/07/14 08:27:47;;;;;;;5.32;3.00;;;;;;;20.17;59.45;101497.31;5092660;28;20024;-58
2023/07/14 08:30:12;;;;;;;5.13;2.78;;;;;;;20.21;60.06;101494.59;5091863;28;20028;-57
2023/07/14 08:32:37;;;;;;;6.47;3.22;;;;;;;20.33;60.59;101501.50;5092464;28;20425;-59
2023/07/14 08:35:03;;;;;;;6.18;2.80;;;;;;;20.36;60.11;101503.25;5092770;28;20036;-57
2023/07/14 08:37:29;;;;;;;5.18;2.90;;;;;;;20.34;60.19;101491.66;5092472;28;20020;-57
2023/07/14 08:39:54;;;;;;;8.02;2.97;;;;;;;20.26;60.46;101491.81;5092768;28;20035;-59
2023/07/14 08:42:33;;;;;;;5.65;2.85;;;;;;;20.23;60.90;101492.75;5092443;28;20169;-58
2023/07/14 08:44:58;;;;;;;5.93;2.78;;;;;;;20.42;60.09;101495.06;5092835;28;20020;-58
2023/07/14 08:47:43;;;;;;;6.68;2.90;;;;;;;20.44;59.71;101495.94;5092429;28;20173;-58
2023/07/14 08:50:17;;;;;;;5.47;2.63;;;;;;;20.68;59.22;101492.78;5092628;28;20133;-58
2023/07/14 08:52:44;;;;;;;5.85;2.92;;;;;;;21.15;58.62;101484.59;5092613;28;20401;-58
2023/07/14 08:55:15;;;;;;;5.22;3.00;;;;;;;21.32;55.48;101484.25;5092881;28;20117;-58
2023/07/14 08:57:48;;;;;;;6.88;2.88;;;;;;;21.58;56.62;101475.53;5092475;28;20027;-58
2023/07/14 09:00:27;;;;;;;5.40;2.85;;;;;;;22.09;55.65;101480.50;5092530;28;20028;-58
2023/07/14 09:03:07;;;;;;;4.63;2.65;;;;;;;22.68;55.18;101477.97;5074178;28;20042;-58
2023/07/14 09:05:39;;;;;;;5.22;2.70;;;;;;;23.04;52.59;101465.25;5092344;28;20036;-58
2023/07/14 09:08:07;;;;;;;7.75;2.83;;;;;;;23.33;52.11;101467.00;5092394;28;20104;-58
2023/07/14 09:10:59;;;;;;;6.43;3.08;;;;;;;23.68;51.89;101462.28;5092288;28;20028;-59
2023/07/14 09:13:39;;;;;;;6.68;3.05;;;;;;;24.14;51.04;101475.06;5091350;28;20044;-58
2023/07/14 09:16:08;;;;;;;9.13;3.22;;;;;;;24.10;48.57;101472.53;5092234;28;20027;-57
2023/07/14 09:18:55;;;;;;;8.30;3.33;;;;;;;24.05;50.67;101467.28;5092456;28;20481;-58
2023/07/14 09:21:26;;;;;;;7.93;3.00;;;;;;;23.73;50.86;101452.25;5092415;28;20032;-57
2023/07/14 09:24:10;;;;;;;6.00;2.92;;;;;;;23.85;49.61;101450.91;5092091;28;20024;-58
2023/07/14 09:26:39;;;;;;;8.90;3.15;;;;;;;24.20;49.23;101458.66;5092474;28;20024;-57
2023/07/14 09:29:12;;;;;;;7.47;3.38;;;;;;;24.33;49.00;101456.41;5092431;28;20032;-58
2023/07/14 09:32:14;;;;;;;8.65;3.40;;;;;;;24.66;49.23;101442.56;5092013;28;20036;-57
2023/07/14 09:34:47;;;;;;;6.65;3.00;;;;;;;24.93;47.67;101440.63;5066291;28;20537;-58
2023/07/14 09:37:26;;;;;;;6.75;3.20;;;;;;;24.95;47.22;101439.63;5092198;28;20389;-57
2023/07/14 09:40:00;;;;;;;5.60;3.10;;;;;;;24.93;47.22;101438.81;5073883;28;20024;-57
2023/07/14 09:42:32;;;;;;;7.65;3.22;;;;;;;24.69;47.01;101435.22;5094635;28;20036;-57
2023/07/14 09:45:08;;;;;;;6.47;3.20;;;;;;;24.72;47.70;101423.44;5096102;28;20024;-58
2023/07/14 09:47:35;;;;;;;7.57;2.92;;;;;;;24.37;47.96;101446.38;5095763;28;20047;-58
2023/07/14 09:50:00;;;;;;;5.88;2.90;;;;;;;24.08;48.88;101429.41;5095871;28;20020;-58
2023/07/14 09:52:28;;;;;;;6.70;3.20;;;;;;;23.91;48.69;101421.03;5095576;28;20020;-58
2023/07/14 09:54:58;;;;;;;5.60;3.00;;;;;;;23.86;49.11;101418.47;5095735;28;20062;-57
2023/07/14 09:57:31;;;;;;;6.25;3.38;;;;;;;24.16;48.48;101411.09;5095805;28;20036;-57
2023/07/14 10:00:00;;;;;;;8.55;2.92;;;;;;;24.09;48.49;101414.94;5095670;28;20124;-59
2023/07/14 10:02:28;;;;;;;7.57;3.25;;;;;;;24.23;48.98;101418.00;5095202;28;20020;-57
2023/07/14 10:04:59;;;;;;;7.03;3.40;;;;;;;24.45;47.15;101409.13;5095595;28;20035;-58
2023/07/14 10:07:25;;;;;;;7.57;3.15;;;;;;;24.73;47.85;101404.44;5095195;28;20028;-58
2023/07/14 10:10:07;;;;;;;6.68;3.20;;;;;;;24.89;47.10;101403.84;5095305;28;20030;-58
2023/07/14 10:12:42;;;;;;;;;;;;;;;25.03;47.60;101404.16;5095771;28;20073;-59
2023/07/14 10:15:38;;;;;;;9.98;3.47;;;;;;;24.71;46.29;101389.22;5095105;28;19908;-57
2023/07/14 10:18:15;;;;;;;7.72;3.30;;;;;;;24.42;48.11;101382.25;5078289;28;20200;-59
2023/07/14 10:20:53;;;;;;;6.32;3.03;;;;;;;24.17;47.89;101382.28;5077041;28;20051;-59
2023/07/14 10:23:19;;;;;;;10.18;3.13;;;;;;;24.03;50.16;101381.91;5095085;28;20111;-58
2023/07/14 10:25:50;;;;;;;8.57;3.60;;;;;;;24.04;49.34;101370.16;5095338;28;20446;-59
2023/07/14 10:28:22;;;;;;;8.05;3.13;;;;;;;24.19;48.62;101377.69;5094884;28;20039;-58
2023/07/14 10:31:23;;;;;;;6.97;3.00;;;;;;;24.56;48.92;101360.97;5095054;28;20032;-57
2023/07/14 10:34:03;;;;;;;9.10;3.30;;;;;;;24.71;48.55;101364.88;5095093;28;20094;-58
2023/07/14 10:36:34;;;;;;;5.63;3.05;;;;;;;25.01;48.79;101356.47;5095176;28;20028;-58
2023/07/14 10:39:26;;;;;;;8.30;3.40;;;;;;;25.54;47.74;101353.38;5094564;28;20389;-58
2023/07/14 10:41:52;;;;;;;8.00;3.22;;;;;;;25.43;45.52;101348.41;5085598;28;20024;-59
2023/07/14 10:44:28;;;;;;;6.80;2.92;;;;;;;25.48;45.15;101336.47;5094515;28;20031;-57
2023/07/14 10:46:59;;;;;;;5.82;3.17;;;;;;;25.74;46.25;101334.44;5094934;28;20024;-57
2023/07/14 10:49:34;;;;;;;6.30;3.20;;;;;;;26.17;45.27;101327.09;5094804;28;20384;-58
2023/07/14 10:52:30;;;;;;;5.47;2.60;;;;;;;26.24;44.53;101333.97;5094451;28;20535;-57
2023/07/14 10:55:27;;;;;;;6.28;2.58;;;;;;;25.98;44.13;101327.06;5092035;28;20050;-59
2023/07/14 10:58:01;;;;;;;6.03;2.80;;;;;;;25.30;43.71;101328.25;5076226;28;20457;-58
2023/07/14 11:00:55;;;;;;;8.32;2.97;;;;;;;25.37;45.20;101325.22;5076145;28;20499;-57
2023/07/14 11:03:38;;;;;;;8.15;3.00;;;;;;;25.57;44.00;101327.06;5093981;28;20016;-57
2023/07/14 11:06:30;;;;;;;5.00;2.70;;;;;;;25.66;44.40;101325.78;5073381;28;20402;-59
2023/07/14 11:08:57;;;;;;;4.95;2.70;;;;;;;25.36;43.31;101322.59;5072505;28;20363;-57
2023/07/14 11:11:25;;;;;;;6.43;2.60;;;;;;;25.20;44.35;101315.13;5073344;28;20524;-58
2023/07/14 11:14:35;;;;;;;9.88;3.00;;;;;;;24.88;44.96;101310.13;5073941;28;20032;-59
2023/07/14 11:17:10;;;;;;;8.07;3.00;;;;;;;25.18;45.46;101299.88;5049938;28;20128;-58
2023/07/14 11:19:56;;;;;;;6.07;2.83;;;;;;;25.42;45.52;101311.50;5072895;28;20490;-59
2023/07/14 11:22:57;;;;;;;5.60;3.10;;;;;;;25.54;45.03;101296.53;5071295;28;20064;-57
2023/07/14 11:25:46;;;;;;;5.97;2.70;;;;;;;25.56;43.30;101270.28;5074021;28;20029;-58
2023/07/14 11:28:29;;;;;;;4.20;2.55;;;;;;;25.62;44.57;101267.31;5059877;28;20279;-57
2023/07/14 11:30:59;;;;;;;5.68;2.70;;;;;;;25.33;43.65;101269.47;5055660;28;20025;-59
2023/07/14 11:33:43;;;;;;;6.88;2.80;;;;;;;25.34;44.01;101267.66;5073171;28;20097;-56
2023/07/14 11:36:16;;;;;;;11.18;2.72;;;;;;;25.27;44.79;101260.75;5073460;28;20379;-57